Time;durP1;ratioP1;P1;durP2;ratioP2;P2;SDS_P1;SDS_P2;PMS_P1;PMS_P2;Temp;Humidity;BMP_temperature;BMP_pressure;BME280_temperature;BME280_humidity;BME280_pressure;Samples;Min_cycle;Max_cycle;Signal;HPM_P1;HPM_P2
2022/08/19 00:00:30;;;;;;;12.85;9.30;;;;;;;;;;5096402;28;20355;-74
2022/08/19 00:02:57;;;;;;;10.23;8.90;;;;;;;;;;5096885;28;20678;-74
2022/08/19 00:05:26;;;;;;;14.05;10.18;;;;;;;;;;5104533;28;20237;-74
2022/08/19 00:07:53;;;;;;;14.18;9.35;;;;;;;;;;5105895;28;20292;-74
2022/08/19 00:10:21;;;;;;;15.25;10.27;;;;;;;;;;5095627;28;20251;-74
2022/08/19 00:12:48;;;;;;;12.70;9.38;;;;;;;;;;5109066;28;20244;-74
2022/08/19 00:15:17;;;;;;;13.88;9.80;;;;;;;;;;5092474;28;20237;-74
2022/08/19 00:17:45;;;;;;;14.13;9.55;;;;;;;;;;5102382;28;20284;-74
2022/08/19 00:20:17;;;;;;;12.52;9.90;;;;;;;;;;5111795;28;20256;-74
2022/08/19 00:22:47;;;;;;;14.05;9.20;;;;;;;;;;5092807;28;20205;-77
2022/08/19 00:25:14;;;;;;;13.60;9.13;;;;;;;;;;5101020;28;20673;-78
2022/08/19 00:27:41;;;;;;;11.50;10.00;;;;;;;;;;5107197;28;20225;-74
2022/08/19 00:30:10;;;;;;;11.70;8.82;;;;;;;;;;5110666;28;20696;-75
2022/08/19 00:32:38;;;;;;;11.90;9.18;;;;;;;;;;5106251;28;20670;-74
2022/08/19 00:35:06;;;;;;;11.75;9.13;;;;;;;;;;5099432;28;20657;-74
2022/08/19 00:37:34;;;;;;;14.52;8.60;;;;;;;;;;5109761;28;20289;-74
2022/08/19 00:40:04;;;;;;;12.10;8.73;;;;;;;;;;5109694;28;20224;-74
2022/08/19 00:42:32;;;;;;;10.32;8.30;;;;;;;;;;5105078;28;20240;-74
2022/08/19 00:44:59;;;;;;;11.25;8.07;;;;;;;;;;5107053;28;20199;-74
2022/08/19 00:47:27;;;;;;;9.45;7.45;;;;;;;;;;5102259;28;20590;-74
2022/08/19 00:49:55;;;;;;;9.18;7.35;;;;;;;;;;5096193;28;20642;-74
2022/08/19 00:52:24;;;;;;;12.52;7.53;;;;;;;;;;5099704;28;20688;-74
2022/08/19 00:54:52;;;;;;;7.72;6.93;;;;;;;;;;5101100;28;20280;-74
2022/08/19 00:57:24;;;;;;;9.85;6.80;;;;;;;;;;5096003;28;20761;-74
2022/08/19 00:59:54;;;;;;;10.60;7.00;;;;;;;;;;5110285;28;20260;-74
2022/08/19 01:02:21;;;;;;;12.25;6.88;;;;;;;;;;5108490;28;20206;-74
2022/08/19 01:04:48;;;;;;;9.13;6.72;;;;;;;;;;5106638;28;20251;-74
2022/08/19 01:07:16;;;;;;;8.82;7.18;;;;;;;;;;5097082;28;20705;-74
2022/08/19 01:09:43;;;;;;;10.48;6.45;;;;;;;;;;5095604;28;20211;-74
2022/08/19 01:12:10;;;;;;;8.90;6.80;;;;;;;;;;5096254;28;20194;-74
2022/08/19 01:14:40;;;;;;;9.68;6.05;;;;;;;;;;5104491;28;20225;-74
2022/08/19 01:17:08;;;;;;;7.78;6.60;;;;;;;;;;5098428;28;20230;-74
2022/08/19 01:19:37;;;;;;;10.35;6.53;;;;;;;;;;5097854;28;20341;-74
2022/08/19 01:22:07;;;;;;;8.90;7.03;;;;;;;;;;5091413;28;20273;-74
2022/08/19 01:24:36;;;;;;;9.77;7.72;;;;;;;;;;5088943;28;20242;-74
2022/08/19 01:27:05;;;;;;;9.63;7.82;;;;;;;;;;5091386;28;20285;-74
2022/08/19 01:29:32;;;;;;;11.05;8.13;;;;;;;;;;5094489;28;20220;-74
2022/08/19 01:32:00;;;;;;;11.40;7.68;;;;;;;;;;5094730;28;20633;-74
2022/08/19 01:34:27;;;;;;;10.85;7.97;;;;;;;;;;5099061;28;20238;-74
2022/08/19 01:36:54;;;;;;;10.70;7.65;;;;;;;;;;5114104;28;20232;-74
2022/08/19 01:39:23;;;;;;;12.02;6.72;;;;;;;;;;5102482;28;20279;-74
2022/08/19 01:41:54;;;;;;;11.40;7.85;;;;;;;;;;5095259;28;20287;-74
2022/08/19 01:44:23;;;;;;;9.30;6.95;;;;;;;;;;5100721;28;20285;-74
2022/08/19 01:46:51;;;;;;;9.23;6.45;;;;;;;;;;5102107;28;20270;-74
2022/08/19 01:49:19;;;;;;;7.68;5.88;;;;;;;;;;5107649;28;20198;-74
2022/08/19 01:51:47;;;;;;;7.72;5.50;;;;;;;;;;5111545;28;20212;-74
2022/08/19 01:54:16;;;;;;;6.97;5.35;;;;;;;;;;5102185;28;20237;-74
2022/08/19 01:56:43;;;;;;;6.40;4.78;;;;;;;;;;5114077;28;20225;-74
2022/08/19 01:59:13;;;;;;;6.47;5.45;;;;;;;;;;5097373;28;20266;-74
2022/08/19 02:01:40;;;;;;;5.82;4.65;;;;;;;;;;5099569;28;20267;-74
2022/08/19 02:04:07;;;;;;;6.18;4.60;;;;;;;;;;5107065;28;20286;-74
2022/08/19 02:06:34;;;;;;;4.72;3.92;;;;;;;;;;5093212;28;20244;-74
2022/08/19 02:09:02;;;;;;;6.97;3.90;;;;;;;;;;5092916;28;20241;-74
2022/08/19 02:11:31;;;;;;;5.53;3.28;;;;;;;;;;5093346;28;20210;-74
2022/08/19 02:13:58;;;;;;;4.05;3.40;;;;;;;;;;5092027;28;20216;-74
2022/08/19 02:16:27;;;;;;;3.30;2.97;;;;;;;;;;5093952;28;20226;-74
2022/08/19 02:18:54;;;;;;;8.00;2.85;;;;;;;;;;5095457;28;20237;-74
2022/08/19 02:21:23;;;;;;;5.85;2.90;;;;;;;;;;5100282;28;20206;-75
2022/08/19 02:23:50;;;;;;;8.00;2.90;;;;;;;;;;5103345;28;20194;-74
2022/08/19 02:26:17;;;;;;;3.15;2.47;;;;;;;;;;5094278;28;20646;-74
2022/08/19 02:28:45;;;;;;;5.20;2.90;;;;;;;;;;5096642;28;20337;-74
2022/08/19 02:31:12;;;;;;;5.68;2.42;;;;;;;;;;5100258;28;20247;-74
2022/08/19 02:33:41;;;;;;;6.85;3.05;;;;;;;;;;5113081;28;20605;-74
2022/08/19 02:36:10;;;;;;;4.28;3.00;;;;;;;;;;5101064;28;20662;-75
2022/08/19 02:38:36;;;;;;;5.88;2.50;;;;;;;;;;5093727;28;20241;-74
2022/08/19 02:41:05;;;;;;;3.97;2.75;;;;;;;;;;5106095;28;20222;-74
2022/08/19 02:43:36;;;;;;;3.45;2.53;;;;;;;;;;5100917;28;20297;-74
2022/08/19 02:46:04;;;;;;;3.72;2.70;;;;;;;;;;5104174;28;20233;-74
2022/08/19 02:48:32;;;;;;;6.03;2.72;;;;;;;;;;5094679;28;20293;-74
2022/08/19 02:51:01;;;;;;;4.13;2.58;;;;;;;;;;5113073;28;20208;-74
2022/08/19 02:53:28;;;;;;;3.90;2.40;;;;;;;;;;5109905;28;20671;-74
2022/08/19 02:55:57;;;;;;;5.40;2.83;;;;;;;;;;5111507;28;20285;-75
2022/08/19 02:58:26;;;;;;;5.18;2.72;;;;;;;;;;5111954;28;20844;-74
2022/08/19 03:00:55;;;;;;;3.42;2.95;;;;;;;;;;5095190;28;20225;-74
2022/08/19 03:03:22;;;;;;;4.07;2.70;;;;;;;;;;5099511;28;20313;-74
2022/08/19 03:05:49;;;;;;;3.47;3.00;;;;;;;;;;5103170;28;20206;-74
2022/08/19 03:08:18;;;;;;;6.65;3.13;;;;;;;;;;5101410;28;20281;-74
2022/08/19 03:10:46;;;;;;;3.90;2.92;;;;;;;;;;5096040;28;20979;-74
2022/08/19 03:13:15;;;;;;;7.40;3.15;;;;;;;;;;5105226;28;20221;-74
2022/08/19 03:15:43;;;;;;;3.45;3.15;;;;;;;;;;5102873;28;20225;-74
2022/08/19 03:18:11;;;;;;;6.03;2.78;;;;;;;;;;5102115;28;20226;-74
2022/08/19 03:20:42;;;;;;;3.72;2.92;;;;;;;;;;5101030;28;20626;-74
2022/08/19 03:23:09;;;;;;;6.78;3.55;;;;;;;;;;5103939;28;20207;-74
2022/08/19 03:25:40;;;;;;;5.00;2.83;;;;;;;;;;5100523;28;20697;-74
2022/08/19 03:28:08;;;;;;;5.72;3.33;;;;;;;;;;5101010;28;20206;-74
2022/08/19 03:30:35;;;;;;;5.22;3.00;;;;;;;;;;5102492;28;20201;-74
2022/08/19 03:33:02;;;;;;;4.15;2.70;;;;;;;;;;5106043;28;20236;-74
2022/08/19 03:35:29;;;;;;;5.18;2.90;;;;;;;;;;5091950;28;20191;-74
2022/08/19 03:37:57;;;;;;;6.13;2.65;;;;;;;;;;5091634;28;20230;-74
2022/08/19 03:40:24;;;;;;;4.13;2.88;;;;;;;;;;5091076;28;20214;-74
2022/08/19 03:42:52;;;;;;;7.60;3.15;;;;;;;;;;5091805;28;20285;-74
2022/08/19 03:45:20;;;;;;;6.57;3.10;;;;;;;;;;5097089;28;20238;-74
2022/08/19 03:47:47;;;;;;;3.30;3.00;;;;;;;;;;5104060;28;20194;-74
2022/08/19 03:50:14;;;;;;;4.63;3.25;;;;;;;;;;5099655;28;20279;-74
2022/08/19 03:52:42;;;;;;;4.88;3.17;;;;;;;;;;5101223;28;20254;-74
2022/08/19 03:55:09;;;;;;;3.83;3.20;;;;;;;;;;5102670;28;20266;-74
2022/08/19 03:57:37;;;;;;;5.97;3.42;;;;;;;;;;5099770;28;20230;-74
2022/08/19 04:00:07;;;;;;;4.85;3.40;;;;;;;;;;5103910;28;20254;-74
2022/08/19 04:02:34;;;;;;;7.25;4.00;;;;;;;;;;5092171;28;20243;-74
2022/08/19 04:05:02;;;;;;;5.10;3.25;;;;;;;;;;5096316;28;20229;-74
2022/08/19 04:07:29;;;;;;;4.55;3.60;;;;;;;;;;5108222;28;20204;-74
2022/08/19 04:09:56;;;;;;;7.60;3.78;;;;;;;;;;5110582;28;20288;-74
2022/08/19 04:12:23;;;;;;;4.53;3.83;;;;;;;;;;5093315;28;20205;-74
2022/08/19 04:14:51;;;;;;;4.93;3.55;;;;;;;;;;5098295;28;20293;-74
2022/08/19 04:17:19;;;;;;;6.90;4.13;;;;;;;;;;5098551;28;20236;-74
2022/08/19 04:19:46;;;;;;;6.07;3.95;;;;;;;;;;5091560;28;20285;-74
2022/08/19 04:22:14;;;;;;;8.10;3.45;;;;;;;;;;5091698;28;20201;-74
2022/08/19 04:24:41;;;;;;;5.55;3.92;;;;;;;;;;5104382;28;20292;-74
2022/08/19 04:27:08;;;;;;;5.38;4.00;;;;;;;;;;5107818;28;20213;-74
2022/08/19 04:29:37;;;;;;;5.15;3.92;;;;;;;;;;5101053;28;20232;-74
2022/08/19 04:32:05;;;;;;;8.55;4.20;;;;;;;;;;5096774;28;20318;-74
2022/08/19 04:34:33;;;;;;;5.78;4.00;;;;;;;;;;5094757;28;20206;-75
2022/08/19 04:37:01;;;;;;;7.10;4.20;;;;;;;;;;5099914;28;20285;-74
2022/08/19 04:44:56;;;;;;;8.45;5.20;;;;;;;;;;5099042;28;20681;-74
2022/08/19 04:47:23;;;;;;;7.25;5.10;;;;;;;;;;5092501;28;20201;-74
2022/08/19 04:49:51;;;;;;;5.35;4.60;;;;;;;;;;5091750;28;20290;-74
2022/08/19 04:52:19;;;;;;;6.82;4.45;;;;;;;;;;5105708;28;20633;-74
2022/08/19 04:54:46;;;;;;;5.78;4.70;;;;;;;;;;5104163;28;20233;-75
2022/08/19 04:57:13;;;;;;;9.18;4.82;;;;;;;;;;5103524;28;20660;-74
2022/08/19 04:59:41;;;;;;;5.68;4.40;;;;;;;;;;5098014;28;20820;-74
2022/08/19 05:02:09;;;;;;;5.10;3.95;;;;;;;;;;5103183;28;20226;-74
2022/08/19 05:04:38;;;;;;;5.13;4.03;;;;;;;;;;5103911;28;20251;-74
2022/08/19 05:07:07;;;;;;;4.20;3.80;;;;;;;;;;5094974;28;20209;-74
2022/08/19 05:09:35;;;;;;;6.55;4.40;;;;;;;;;;5098517;28;20617;-74
2022/08/19 05:12:02;;;;;;;5.22;4.25;;;;;;;;;;5104604;28;20599;-74
2022/08/19 05:14:30;;;;;;;6.60;4.13;;;;;;;;;;5101726;28;20288;-74
2022/08/19 05:16:57;;;;;;;6.05;4.10;;;;;;;;;;5110039;28;20248;-74
2022/08/19 05:24:55;;;;;;;5.97;4.22;;;;;;;;;;5109179;28;20209;-74
2022/08/19 05:27:22;;;;;;;5.57;4.28;;;;;;;;;;5111357;28;20267;-74
2022/08/19 05:29:50;;;;;;;5.75;4.18;;;;;;;;;;5099998;28;20657;-74
2022/08/19 05:32:17;;;;;;;7.38;4.25;;;;;;;;;;5105660;28;20217;-74
2022/08/19 05:34:44;;;;;;;4.80;4.03;;;;;;;;;;5101062;28;20351;-74
2022/08/19 05:37:13;;;;;;;8.57;4.70;;;;;;;;;;5098980;28;20281;-74
2022/08/19 05:39:40;;;;;;;5.90;4.45;;;;;;;;;;5094386;28;20207;-74
2022/08/19 05:42:09;;;;;;;4.60;3.97;;;;;;;;;;5105331;28;20245;-74
2022/08/19 05:44:38;;;;;;;5.72;3.88;;;;;;;;;;5103282;28;20635;-74
2022/08/19 05:47:08;;;;;;;4.63;3.95;;;;;;;;;;5109411;28;20292;-74
2022/08/19 05:49:35;;;;;;;4.40;3.60;;;;;;;;;;5099064;28;20368;-74
2022/08/19 05:52:03;;;;;;;4.78;3.80;;;;;;;;;;5102151;28;20696;-75
2022/08/19 05:54:32;;;;;;;6.65;4.15;;;;;;;;;;5103682;28;20198;-74
2022/08/19 05:56:59;;;;;;;5.07;3.90;;;;;;;;;;5102645;28;20316;-74
2022/08/19 05:59:26;;;;;;;5.22;3.88;;;;;;;;;;5098771;27;20250;-74
2022/08/19 06:01:56;;;;;;;5.32;3.80;;;;;;;;;;5109040;28;20258;-74
2022/08/19 06:04:23;;;;;;;5.55;4.00;;;;;;;;;;5098931;28;20202;-74
2022/08/19 06:06:53;;;;;;;4.60;3.97;;;;;;;;;;5102569;28;20709;-76
2022/08/19 06:09:21;;;;;;;4.88;3.60;;;;;;;;;;5100642;28;20201;-74
2022/08/19 06:11:53;;;;;;;4.15;3.53;;;;;;;;;;5102694;28;20604;-75
2022/08/19 06:14:22;;;;;;;5.80;3.97;;;;;;;;;;5107555;28;20226;-75
2022/08/19 06:16:50;;;;;;;5.75;3.47;;;;;;;;;;5095759;28;20247;-74
2022/08/19 06:19:19;;;;;;;5.90;4.10;;;;;;;;;;5095641;28;20698;-74
2022/08/19 06:21:47;;;;;;;5.22;3.92;;;;;;;;;;5102169;28;20226;-75
2022/08/19 06:24:17;;;;;;;5.35;4.20;;;;;;;;;;5110269;28;20244;-74
2022/08/19 06:26:45;;;;;;;4.72;3.80;;;;;;;;;;5106866;28;20292;-75
2022/08/19 06:29:14;;;;;;;4.10;3.70;;;;;;;;;;5101339;28;20884;-75
2022/08/19 06:31:43;;;;;;;5.25;4.15;;;;;;;;;;5103624;28;20290;-75
2022/08/19 06:34:10;;;;;;;4.88;4.07;;;;;;;;;;5110114;28;20233;-76
2022/08/19 06:36:41;;;;;;;5.53;4.22;;;;;;;;;;5105744;28;20203;-75
2022/08/19 06:39:09;;;;;;;5.10;4.10;;;;;;;;;;5103468;28;20202;-75
2022/08/19 06:41:37;;;;;;;5.40;4.10;;;;;;;;;;5103324;28;20254;-75
2022/08/19 06:44:05;;;;;;;5.75;3.80;;;;;;;;;;5110173;28;20280;-74
2022/08/19 06:46:34;;;;;;;5.15;4.15;;;;;;;;;;5092684;28;20282;-74
2022/08/19 06:49:01;;;;;;;5.72;4.43;;;;;;;;;;5100320;28;20225;-75
2022/08/19 06:51:29;;;;;;;4.80;3.85;;;;;;;;;;5103465;28;20248;-75
2022/08/19 06:53:56;;;;;;;4.88;4.22;;;;;;;;;;5095860;28;20722;-75
2022/08/19 06:56:30;;;;;;;6.50;4.28;;;;;;;;;;5102533;28;20369;-75
2022/08/19 06:58:58;;;;;;;6.55;4.40;;;;;;;;;;5097356;27;20254;-75
2022/08/19 07:01:25;;;;;;;4.80;3.75;;;;;;;;;;5099015;28;20308;-75
2022/08/19 07:03:54;;;;;;;5.90;4.20;;;;;;;;;;5093210;28;20285;-74
2022/08/19 07:06:21;;;;;;;4.43;3.88;;;;;;;;;;5102755;28;20280;-75
2022/08/19 07:08:50;;;;;;;5.47;3.97;;;;;;;;;;5107558;28;20199;-76
2022/08/19 07:11:19;;;;;;;4.65;4.25;;;;;;;;;;5096403;28;20202;-75
2022/08/19 07:13:48;;;;;;;5.55;4.25;;;;;;;;;;5100748;28;20213;-75
2022/08/19 07:16:16;;;;;;;3.92;3.53;;;;;;;;;;5092025;28;20202;-76
2022/08/19 07:18:44;;;;;;;4.47;3.65;;;;;;;;;;5092818;28;20228;-75
2022/08/19 07:21:13;;;;;;;5.60;4.07;;;;;;;;;;5104516;28;20633;-74
2022/08/19 07:23:40;;;;;;;5.70;4.20;;;;;;;;;;5101707;28;20225;-75
2022/08/19 07:26:09;;;;;;;5.13;3.85;;;;;;;;;;5091796;28;20620;-76
2022/08/19 07:28:38;;;;;;;4.85;3.85;;;;;;;;;;5107409;28;20266;-74
2022/08/19 07:31:06;;;;;;;5.78;3.90;;;;;;;;;;5099838;28;20241;-74
2022/08/19 07:33:36;;;;;;;4.75;4.25;;;;;;;;;;5101290;28;20741;-75
2022/08/19 07:36:04;;;;;;;5.40;3.95;;;;;;;;;;5105459;28;20205;-75
2022/08/19 07:38:32;;;;;;;4.97;3.97;;;;;;;;;;5089154;28;20295;-75
2022/08/19 07:41:00;;;;;;;5.65;4.10;;;;;;;;;;5092489;28;20218;-75
2022/08/19 07:43:27;;;;;;;4.10;3.70;;;;;;;;;;5112318;28;20287;-75
2022/08/19 07:45:56;;;;;;;4.45;3.75;;;;;;;;;;5112200;28;20245;-76
2022/08/19 07:48:25;;;;;;;4.40;4.00;;;;;;;;;;5112046;28;20206;-75
2022/08/19 07:50:52;;;;;;;6.22;4.40;;;;;;;;;;5103772;28;20285;-75
2022/08/19 07:53:20;;;;;;;5.85;3.90;;;;;;;;;;5102678;28;20288;-75
2022/08/19 07:55:49;;;;;;;5.18;3.97;;;;;;;;;;5101750;28;20194;-75
2022/08/19 07:58:18;;;;;;;4.93;3.85;;;;;;;;;;5105322;28;20339;-75
2022/08/19 08:00:46;;;;;;;5.68;3.85;;;;;;;;;;5108463;28;20203;-76
2022/08/19 08:03:14;;;;;;;4.47;3.25;;;;;;;;;;5098290;28;20241;-75
2022/08/19 08:11:24;;;;;;;6.15;3.38;;;;;;;;;;5067965;28;20213;-75
2022/08/19 08:13:51;;;;;;;5.53;3.70;;;;;;;;;;5053656;28;20227;-74
2022/08/19 08:16:20;;;;;;;5.28;3.45;;;;;;;;;;5052731;28;20237;-75
2022/08/19 08:18:47;;;;;;;5.13;3.53;;;;;;;;;;5061014;28;20199;-75
2022/08/19 08:21:14;;;;;;;4.15;3.15;;;;;;;;;;5052641;28;20318;-75
2022/08/19 08:23:42;;;;;;;4.07;3.47;;;;;;;;;;5052614;28;20286;-75
2022/08/19 08:26:10;;;;;;;5.32;3.20;;;;;;;;;;5061290;28;20198;-75
2022/08/19 08:28:39;;;;;;;4.88;3.42;;;;;;;;;;5060128;28;20211;-75
2022/08/19 08:31:06;;;;;;;4.50;3.30;;;;;;;;;;5055644;28;20257;-75
2022/08/19 08:33:33;;;;;;;5.18;3.22;;;;;;;;;;5067698;28;20298;-74
2022/08/19 08:36:01;;;;;;;6.00;4.22;;;;;;;;;;5059350;28;20200;-75
2022/08/19 08:38:29;;;;;;;5.50;3.67;;;;;;;;;;5070614;28;20230;-75
2022/08/19 08:41:06;;;;;;;5.80;3.55;;;;;;;;;;5055480;28;20234;-75
2022/08/19 08:43:35;;;;;;;5.40;3.72;;;;;;;;;;5092697;28;20709;-75
2022/08/19 08:46:10;;;;;;;6.30;3.60;;;;;;;;;;5106332;28;20289;-74
2022/08/19 08:48:39;;;;;;;4.65;3.00;;;;;;;;;;5111008;28;20640;-76
2022/08/19 08:51:09;;;;;;;5.10;3.20;;;;;;;;;;5096430;28;20238;-74
2022/08/19 08:53:38;;;;;;;4.35;2.78;;;;;;;;;;5103141;28;20400;-76
2022/08/19 08:56:07;;;;;;;6.60;3.00;;;;;;;;;;5104253;28;20199;-75
2022/08/19 08:58:41;;;;;;;4.72;3.20;;;;;;;;;;5103199;28;20252;-75
2022/08/19 09:01:12;;;;;;;4.50;2.78;;;;;;;;;;5092233;28;20293;-75
2022/08/19 09:03:40;;;;;;;4.50;2.85;;;;;;;;;;5100006;28;20241;-75
2022/08/19 09:06:09;;;;;;;5.32;3.10;;;;;;;;;;5103159;27;20206;-76
2022/08/19 09:08:40;;;;;;;4.18;2.88;;;;;;;;;;5098937;28;20660;-75
2022/08/19 09:11:09;;;;;;;4.47;2.72;;;;;;;;;;5103299;28;20217;-75
2022/08/19 09:13:40;;;;;;;4.90;2.55;;;;;;;;;;5099401;28;20696;-75
2022/08/19 09:16:08;;;;;;;3.88;2.88;;;;;;;;;;5101616;28;20293;-76
2022/08/19 09:18:42;;;;;;;5.03;2.80;;;;;;;;;;5101418;28;20357;-75
2022/08/19 09:21:09;;;;;;;5.75;3.05;;;;;;;;;;5096410;28;20713;-76
2022/08/19 09:23:36;;;;;;;5.75;2.75;;;;;;;;;;5102742;28;20275;-75
2022/08/19 09:26:08;;;;;;;4.43;2.63;;;;;;;;;;5107107;27;20303;-75
2022/08/19 09:28:36;;;;;;;5.18;2.55;;;;;;;;;;5094280;28;20209;-76
2022/08/19 09:31:04;;;;;;;4.88;2.75;;;;;;;;;;5093392;28;20620;-76
2022/08/19 09:33:31;;;;;;;4.30;3.00;;;;;;;;;;5094120;28;20214;-75
2022/08/19 09:36:08;;;;;;;5.85;3.00;;;;;;;;;;5094380;28;20654;-75
2022/08/19 09:38:35;;;;;;;5.72;3.15;;;;;;;;;;5105204;28;20240;-75
2022/08/19 09:41:06;;;;;;;4.65;3.03;;;;;;;;;;5092690;28;20242;-76
2022/08/19 09:43:36;;;;;;;5.10;2.67;;;;;;;;;;5104172;28;20249;-75
2022/08/19 09:46:05;;;;;;;3.45;2.72;;;;;;;;;;5103887;28;20286;-75
2022/08/19 09:48:32;;;;;;;4.75;2.70;;;;;;;;;;5102145;28;20254;-75
2022/08/19 09:51:04;;;;;;;4.38;2.72;;;;;;;;;;5095609;28;20249;-75
2022/08/19 09:53:33;;;;;;;5.45;2.35;;;;;;;;;;5099957;28;20257;-76
2022/08/19 09:56:00;;;;;;;4.20;2.20;;;;;;;;;;5096978;28;20249;-76
2022/08/19 09:58:29;;;;;;;3.33;1.85;;;;;;;;;;5108538;28;20267;-75
2022/08/19 10:00:57;;;;;;;4.97;2.30;;;;;;;;;;5106287;28;20251;-76
2022/08/19 10:03:24;;;;;;;4.18;2.80;;;;;;;;;;5100032;28;20250;-74
2022/08/19 10:05:52;;;;;;;4.93;2.75;;;;;;;;;;5098092;28;20238;-76
2022/08/19 10:08:20;;;;;;;6.05;3.00;;;;;;;;;;5111775;28;20208;-74
2022/08/19 10:10:49;;;;;;;4.57;2.60;;;;;;;;;;5094925;28;20234;-75
2022/08/19 10:13:17;;;;;;;7.53;2.83;;;;;;;;;;5092681;28;20285;-74
2022/08/19 10:15:45;;;;;;;4.38;2.38;;;;;;;;;;5094444;28;20281;-75
2022/08/19 10:18:12;;;;;;;4.15;1.85;;;;;;;;;;5100547;28;20233;-75
2022/08/19 10:20:41;;;;;;;3.25;2.00;;;;;;;;;;5099725;28;20236;-75
2022/08/19 10:23:08;;;;;;;4.47;1.90;;;;;;;;;;5092398;28;20241;-74
2022/08/19 10:25:35;;;;;;;3.45;1.60;;;;;;;;;;5092456;28;20236;-75
2022/08/19 10:28:07;;;;;;;3.50;1.77;;;;;;;;;;5092604;28;21620;-75
2022/08/19 10:30:34;;;;;;;2.20;1.50;;;;;;;;;;5091404;28;20216;-75
2022/08/19 10:33:01;;;;;;;2.35;1.77;;;;;;;;;;5095892;28;20266;-75
2022/08/19 10:35:29;;;;;;;3.58;2.15;;;;;;;;;;5092963;28;20198;-75
2022/08/19 10:37:58;;;;;;;4.00;2.08;;;;;;;;;;5092630;28;20221;-76
2022/08/19 10:40:26;;;;;;;4.55;1.80;;;;;;;;;;5103388;28;20202;-75
2022/08/19 10:42:53;;;;;;;3.28;2.03;;;;;;;;;;5092445;28;20268;-75
2022/08/19 10:45:25;;;;;;;4.20;2.00;;;;;;;;;;5093971;28;20222;-75
2022/08/19 10:47:52;;;;;;;3.55;1.80;;;;;;;;;;5102725;28;20198;-75
2022/08/19 10:53:05;;;;;;;10.65;2.22;;;;;;;;;;5102871;28;20331;-74
2022/08/19 10:58:21;;;;;;;4.35;1.90;;;;;;;;;;5093986;28;20244;-75
2022/08/19 11:00:54;;;;;;;4.68;2.08;;;;;;;;;;5105219;28;20213;-75
2022/08/19 11:03:22;;;;;;;5.32;2.25;;;;;;;;;;5098857;27;20310;-74
2022/08/19 11:05:58;;;;;;;4.38;2.25;;;;;;;;;;5099967;28;20206;-75
2022/08/19 11:08:26;;;;;;;2.55;1.95;;;;;;;;;;5102209;28;20205;-75
2022/08/19 11:10:55;;;;;;;3.45;1.90;;;;;;;;;;5101726;28;20259;-74
2022/08/19 11:13:23;;;;;;;3.40;1.90;;;;;;;;;;5097628;28;20195;-75
2022/08/19 11:15:58;;;;;;;2.53;1.80;;;;;;;;;;5092108;28;20672;-75
2022/08/19 11:18:26;;;;;;;2.33;1.55;;;;;;;;;;5090826;28;20288;-74
2022/08/19 11:20:53;;;;;;;3.03;1.88;;;;;;;;;;5098733;28;20247;-74
2022/08/19 11:23:21;;;;;;;3.30;1.10;;;;;;;;;;5095303;28;20227;-75
2022/08/19 11:25:48;;;;;;;1.25;0.90;;;;;;;;;;5109951;28;20228;-75
2022/08/19 11:28:15;;;;;;;2.85;1.08;;;;;;;;;;5107150;28;20240;-76
2022/08/19 11:30:42;;;;;;;2.10;1.30;;;;;;;;;;5100101;28;20226;-75
2022/08/19 11:33:11;;;;;;;2.58;1.00;;;;;;;;;;5098285;28;20194;-75
2022/08/19 11:35:40;;;;;;;1.60;0.88;;;;;;;;;;5100555;28;20278;-79
2022/08/19 11:38:08;;;;;;;6.97;1.50;;;;;;;;;;5093072;28;20670;-79
2022/08/19 11:40:35;;;;;;;2.10;1.45;;;;;;;;;;5092302;28;20637;-79
2022/08/19 11:43:02;;;;;;;2.13;1.35;;;;;;;;;;5092987;28;20241;-79
2022/08/19 11:45:30;;;;;;;3.38;1.60;;;;;;;;;;5090844;28;20237;-79
2022/08/19 11:47:57;;;;;;;7.43;1.63;;;;;;;;;;5092429;28;20230;-79
2022/08/19 11:50:26;;;;;;;2.67;1.50;;;;;;;;;;5091380;28;20203;-79
2022/08/19 11:52:55;;;;;;;2.15;1.30;;;;;;;;;;5105677;28;20228;-78
2022/08/19 11:55:22;;;;;;;1.88;1.00;;;;;;;;;;5096825;28;20263;-79
2022/08/19 11:57:50;;;;;;;2.30;1.20;;;;;;;;;;5099427;28;20329;-79
2022/08/19 12:00:18;;;;;;;2.25;1.13;;;;;;;;;;5095148;28;20234;-76
2022/08/19 12:02:45;;;;;;;1.88;1.30;;;;;;;;;;5104725;28;20246;-79
2022/08/19 12:05:12;;;;;;;2.55;1.27;;;;;;;;;;5097980;28;20203;-79
2022/08/19 12:07:43;;;;;;;1.88;0.90;;;;;;;;;;5100477;28;20284;-78
2022/08/19 12:10:11;;;;;;;2.85;1.30;;;;;;;;;;5101979;28;20202;-79
2022/08/19 12:12:42;;;;;;;2.72;1.40;;;;;;;;;;5107489;28;20763;-78
2022/08/19 12:15:10;;;;;;;1.75;1.15;;;;;;;;;;5099362;28;20203;-79
2022/08/19 12:17:37;;;;;;;2.20;1.20;;;;;;;;;;5100301;28;20670;-79
2022/08/19 12:20:06;;;;;;;1.88;1.23;;;;;;;;;;5103751;28;20294;-79
2022/08/19 12:22:34;;;;;;;1.70;1.17;;;;;;;;;;5092676;28;20222;-78
2022/08/19 12:25:03;;;;;;;3.22;1.30;;;;;;;;;;5099841;28;20198;-78
2022/08/19 12:27:30;;;;;;;2.47;1.30;;;;;;;;;;5103184;28;20222;-79
2022/08/19 12:29:58;;;;;;;2.53;1.33;;;;;;;;;;5107442;28;20226;-79
2022/08/19 12:32:26;;;;;;;2.10;1.25;;;;;;;;;;5104673;28;20247;-77
2022/08/19 12:34:54;;;;;;;3.00;1.23;;;;;;;;;;5111446;28;20205;-77
2022/08/19 12:37:21;;;;;;;2.53;1.38;;;;;;;;;;5100681;28;20228;-77
2022/08/19 12:39:48;;;;;;;7.55;1.63;;;;;;;;;;5095378;28;20229;-78
2022/08/19 12:42:17;;;;;;;4.30;1.65;;;;;;;;;;5097332;28;20221;-78
2022/08/19 12:44:45;;;;;;;4.95;1.63;;;;;;;;;;5103711;28;20266;-77
2022/08/19 12:47:14;;;;;;;3.10;1.50;;;;;;;;;;5104282;28;20255;-75
2022/08/19 12:49:41;;;;;;;5.82;1.85;;;;;;;;;;5098224;28;20198;-75
2022/08/19 12:52:10;;;;;;;3.47;1.60;;;;;;;;;;5101865;28;20895;-75
2022/08/19 12:54:37;;;;;;;3.97;1.48;;;;;;;;;;5100247;28;20224;-76
2022/08/19 12:57:07;;;;;;;3.80;1.73;;;;;;;;;;5099797;28;20254;-75
2022/08/19 12:59:36;;;;;;;4.53;2.00;;;;;;;;;;5094122;28;20268;-75
2022/08/19 13:02:05;;;;;;;8.18;1.63;;;;;;;;;;5092286;28;20210;-76
2022/08/19 13:04:34;;;;;;;2.53;1.60;;;;;;;;;;5093951;28;20217;-75
2022/08/19 13:07:02;;;;;;;4.47;1.85;;;;;;;;;;5108563;28;20212;-76
2022/08/19 13:09:29;;;;;;;3.38;1.50;;;;;;;;;;5102331;28;20226;-75
2022/08/19 13:11:57;;;;;;;1.60;1.17;;;;;;;;;;5104458;28;20210;-75
2022/08/19 13:14:24;;;;;;;2.75;1.30;;;;;;;;;;5109732;28;20200;-76
2022/08/19 13:16:52;;;;;;;2.95;1.30;;;;;;;;;;5091864;28;20278;-75
2022/08/19 13:19:22;;;;;;;1.23;1.10;;;;;;;;;;5102437;28;20678;-76
2022/08/19 13:21:51;;;;;;;2.03;0.98;;;;;;;;;;5109907;28;20562;-76
2022/08/19 13:24:18;;;;;;;1.02;0.90;;;;;;;;;;4756511;28;9999864;-76
2022/08/19 13:26:45;;;;;;;3.58;1.00;;;;;;;;;;5097743;28;20230;-75
2022/08/19 13:34:46;;;;;;;2.33;0.95;;;;;;;;;;5094231;28;20294;-75
2022/08/19 13:37:13;;;;;;;2.72;1.48;;;;;;;;;;5097082;28;20220;-75
2022/08/19 13:39:40;;;;;;;1.55;1.30;;;;;;;;;;5096769;28;20226;-75
2022/08/19 13:42:10;;;;;;;3.08;1.63;;;;;;;;;;5092690;28;20198;-75
2022/08/19 13:44:37;;;;;;;2.00;1.50;;;;;;;;;;5097517;28;20241;-76
2022/08/19 13:47:07;;;;;;;4.25;1.80;;;;;;;;;;5101116;28;20230;-75
2022/08/19 13:49:36;;;;;;;2.78;1.58;;;;;;;;;;5101878;28;20206;-75
2022/08/19 13:52:04;;;;;;;3.10;2.05;;;;;;;;;;5111721;28;20201;-75
2022/08/19 13:54:32;;;;;;;2.88;1.85;;;;;;;;;;5109711;28;20198;-75
2022/08/19 13:56:59;;;;;;;5.65;2.15;;;;;;;;;;5093711;28;20257;-76
2022/08/19 13:59:27;;;;;;;3.38;2.10;;;;;;;;;;5102653;28;20304;-76
2022/08/19 14:01:54;;;;;;;3.20;1.83;;;;;;;;;;5094795;28;20376;-75
2022/08/19 14:04:22;;;;;;;3.60;2.03;;;;;;;;;;5093380;28;20965;-75
2022/08/19 14:06:49;;;;;;;3.30;1.90;;;;;;;;;;5099089;28;20491;-75
2022/08/19 14:09:17;;;;;;;3.35;1.52;;;;;;;;;;5093952;28;20301;-75
2022/08/19 14:11:46;;;;;;;2.60;1.55;;;;;;;;;;5098985;28;20285;-75
2022/08/19 14:14:13;;;;;;;2.58;1.40;;;;;;;;;;5106872;28;20202;-75
2022/08/19 14:16:42;;;;;;;2.45;1.50;;;;;;;;;;5106115;28;20288;-75
2022/08/19 14:19:09;;;;;;;3.97;1.35;;;;;;;;;;5098198;28;20204;-75
2022/08/19 14:21:39;;;;;;;3.55;1.63;;;;;;;;;;5091098;28;20233;-75
2022/08/19 14:24:06;;;;;;;2.38;1.40;;;;;;;;;;5095475;28;20253;-75
2022/08/19 14:26:33;;;;;;;2.05;1.48;;;;;;;;;;5101518;28;20280;-75
2022/08/19 14:29:01;;;;;;;1.50;0.98;;;;;;;;;;5109113;28;20292;-76
2022/08/19 14:31:28;;;;;;;0.73;0.20;;;;;;;;;;5099596;28;20225;-75
2022/08/19 14:33:55;;;;;;;1.15;0.20;;;;;;;;;;5101582;28;20250;-75
2022/08/19 14:36:22;;;;;;;0.17;0.10;;;;;;;;;;5093322;28;20291;-75
2022/08/19 14:38:51;;;;;;;2.50;0.20;;;;;;;;;;5107149;28;20212;-75
2022/08/19 14:41:19;;;;;;;4.13;0.30;;;;;;;;;;5101690;28;20255;-75
2022/08/19 14:43:47;;;;;;;0.65;0.25;;;;;;;;;;5107483;28;20249;-75
2022/08/19 14:46:19;;;;;;;3.20;0.30;;;;;;;;;;5092671;28;20241;-76
2022/08/19 14:48:46;;;;;;;1.67;0.40;;;;;;;;;;5098713;28;20202;-76
2022/08/19 14:51:14;;;;;;;2.15;0.20;;;;;;;;;;5100501;28;20308;-77
2022/08/19 14:53:41;;;;;;;0.43;0.40;;;;;;;;;;5111102;28;20252;-75
2022/08/19 14:56:11;;;;;;;0.43;0.30;;;;;;;;;;5101458;28;20255;-76
2022/08/19 14:58:39;;;;;;;0.38;0.25;;;;;;;;;;5095157;28;20279;-76
2022/08/19 15:01:07;;;;;;;0.30;0.30;;;;;;;;;;5097802;28;20190;-76
2022/08/19 15:03:34;;;;;;;1.75;0.20;;;;;;;;;;5106189;28;20312;-76
2022/08/19 15:06:02;;;;;;;0.20;0.20;;;;;;;;;;5107145;28;20210;-76
2022/08/19 15:08:31;;;;;;;0.60;0.32;;;;;;;;;;5094081;28;20243;-76
2022/08/19 15:10:58;;;;;;;0.75;0.25;;;;;;;;;;5107745;28;20237;-76
2022/08/19 15:13:27;;;;;;;1.30;0.40;;;;;;;;;;5098314;28;20226;-76